Time;durP1;ratioP1;P1;durP2;ratioP2;P2;SDS_P1;SDS_P2;PMS_P1;PMS_P2;Temp;Humidity;BMP_temperature;BMP_pressure;BME280_temperature;BME280_humidity;BME280_pressure;Samples;Min_cycle;Max_cycle;Signal;HPM_P1;HPM_P2
2022/11/17 00:00:25;;;;;;;7.70;3.10;;;10.50;99.90;;;;;;5094442;28;20027;-63
2022/11/17 00:02:51;;;;;;;8.10;2.30;;;10.50;99.90;;;;;;5093481;28;20020;-63
2022/11/17 00:05:17;;;;;;;6.53;2.53;;;10.40;99.90;;;;;;5094140;28;20054;-63
2022/11/17 00:07:44;;;;;;;4.35;2.42;;;10.40;99.90;;;;;;5091106;28;20020;-63
2022/11/17 00:10:11;;;;;;;6.40;3.05;;;10.40;99.90;;;;;;5093628;28;20036;-63
2022/11/17 00:15:21;;;;;;;7.10;2.75;;;10.30;99.90;;;;;;5093253;28;20659;-63
2022/11/17 00:21:17;;;;;;;10.07;2.88;;;10.30;99.90;;;;;;5094024;28;20052;-63
2022/11/17 00:23:24;;;;;;;7.97;3.00;;;10.30;99.90;;;;;;5093650;28;20066;-63
2022/11/17 00:25:49;;;;;;;7.72;2.90;;;10.30;99.90;;;;;;5093942;28;20027;-63
2022/11/17 00:28:15;;;;;;;9.27;2.92;;;10.20;99.90;;;;;;5093465;28;20577;-63
2022/11/17 00:36:09;;;;;;;8.77;3.20;;;10.20;99.90;;;;;;5093483;28;20039;-63
2022/11/17 00:38:35;;;;;;;9.23;3.20;;;10.20;99.90;;;;;;5093590;28;20427;-63
2022/11/17 00:41:00;;;;;;;6.82;3.03;;;10.20;99.90;;;;;;5093407;28;20381;-62
2022/11/17 00:43:26;;;;;;;6.30;2.70;;;10.20;99.90;;;;;;5092968;28;20403;-63
2022/11/17 00:45:51;;;;;;;5.57;2.90;;;10.10;99.90;;;;;;5093249;28;20391;-62
2022/11/17 00:48:17;;;;;;;6.53;3.25;;;10.10;99.90;;;;;;5093457;28;20020;-63
2022/11/17 00:50:42;;;;;;;7.15;2.80;;;10.10;99.90;;;;;;5092627;28;20024;-63
2022/11/17 00:53:08;;;;;;;8.07;3.33;;;10.10;99.90;;;;;;5092735;28;20099;-62
2022/11/17 00:55:33;;;;;;;10.10;3.15;;;10.10;99.90;;;;;;5092993;28;20097;-63
2022/11/17 00:57:59;;;;;;;7.80;3.20;;;10.10;99.90;;;;;;5092262;28;20025;-62
2022/11/17 01:00:24;;;;;;;8.40;3.10;;;10.10;99.90;;;;;;5092714;28;20473;-63
2022/11/17 01:02:50;;;;;;;7.75;3.15;;;10.10;99.90;;;;;;5092747;28;20120;-62
2022/11/17 01:05:16;;;;;;;8.35;3.35;;;10.10;99.90;;;;;;5092130;28;20028;-62
2022/11/17 01:07:41;;;;;;;8.70;3.60;;;10.00;99.90;;;;;;5092870;28;20032;-62
2022/11/17 01:10:08;;;;;;;8.43;3.72;;;10.00;99.90;;;;;;5093232;28;20066;-63
2022/11/17 01:12:33;;;;;;;8.45;3.75;;;10.00;99.90;;;;;;5092208;28;20027;-62
2022/11/17 01:14:59;;;;;;;6.10;3.35;;;10.00;99.90;;;;;;5091724;28;20032;-63
2022/11/17 01:17:25;;;;;;;11.38;3.83;;;10.00;99.90;;;;;;5092679;28;20060;-63
2022/11/17 01:19:50;;;;;;;6.95;3.50;;;10.00;99.90;;;;;;5091990;28;20027;-62
2022/11/17 01:22:16;;;;;;;10.88;4.00;;;10.10;99.90;;;;;;5092388;28;20046;-62
2022/11/17 01:24:42;;;;;;;8.75;3.22;;;10.10;99.90;;;;;;5092893;28;20032;-62
2022/11/17 01:27:07;;;;;;;7.95;3.45;;;10.10;99.90;;;;;;5092282;28;20047;-62
2022/11/17 01:29:33;;;;;;;8.85;2.90;;;10.00;99.90;;;;;;5092597;28;20468;-62
2022/11/17 01:31:59;;;;;;;8.95;3.45;;;10.10;99.90;;;;;;5092633;28;20028;-62
2022/11/17 01:34:25;;;;;;;5.80;2.70;;;10.10;99.90;;;;;;5091774;28;20036;-63
2022/11/17 01:39:34;;;;;;;9.35;3.20;;;10.10;99.90;;;;;;5092133;28;20526;-62
2022/11/17 01:42:10;;;;;;;7.72;2.72;;;10.10;99.90;;;;;;5092492;28;20028;-63
2022/11/17 01:44:52;;;;;;;12.15;3.03;;;10.10;99.90;;;;;;5091204;28;20024;-62
2022/11/17 01:47:33;;;;;;;8.30;3.05;;;10.10;99.90;;;;;;5091865;28;20029;-62
2022/11/17 01:50:32;;;;;;;7.22;3.13;;;10.10;99.90;;;;;;5092271;28;20031;-62
2022/11/17 01:53:03;;;;;;;5.82;2.85;;;10.10;99.90;;;;;;5092408;28;20095;-62
2022/11/17 01:55:40;;;;;;;9.13;2.80;;;10.10;99.90;;;;;;5091994;28;20500;-65
2022/11/17 01:58:24;;;;;;;5.80;3.28;;;10.10;99.90;;;;;;5092561;28;20024;-64
2022/11/17 02:00:51;;;;;;;6.25;2.85;;;10.10;99.90;;;;;;5091915;28;20017;-65
2022/11/17 02:03:17;;;;;;;5.00;2.92;;;10.10;99.90;;;;;;5093356;28;20016;-65
2022/11/17 02:06:14;;;;;;;5.63;2.60;;;10.10;99.90;;;;;;5095155;28;20031;-64
2022/11/17 02:08:44;;;;;;;5.47;2.45;;;10.10;99.90;;;;;;5074387;28;20044;-65
2022/11/17 02:11:14;;;;;;;9.10;2.70;;;10.20;99.90;;;;;;5074786;28;20532;-63
2022/11/17 02:13:40;;;;;;;7.07;2.78;;;10.20;99.90;;;;;;5075745;28;20032;-63
2022/11/17 02:16:14;;;;;;;9.25;2.58;;;10.20;99.90;;;;;;5075854;28;20081;-64
2022/11/17 02:18:40;;;;;;;5.05;2.75;;;10.20;99.90;;;;;;5075007;28;20473;-63
2022/11/17 02:21:43;;;;;;;4.75;2.45;;;10.20;99.90;;;;;;5075917;28;20024;-63
2022/11/17 02:24:46;;;;;;;6.32;2.45;;;10.20;99.90;;;;;;5075849;28;20149;-65
2022/11/17 02:27:41;;;;;;;6.63;2.20;;;10.20;99.90;;;;;;5075801;28;20084;-65
2022/11/17 02:30:16;;;;;;;7.72;2.88;;;10.30;99.90;;;;;;5074997;28;20024;-65
2022/11/17 02:32:48;;;;;;;4.22;2.35;;;10.30;99.90;;;;;;5075437;28;20031;-64
2022/11/17 02:35:37;;;;;;;5.45;2.70;;;10.30;99.90;;;;;;5075553;28;20036;-65
2022/11/17 02:38:18;;;;;;;5.93;2.22;;;10.30;99.90;;;;;;5073794;28;20040;-64
2022/11/17 02:41:08;;;;;;;5.43;1.98;;;10.30;99.90;;;;;;5075471;28;20055;-65
2022/11/17 02:46:49;;;;;;;3.53;1.83;;;10.30;99.90;;;;;;5075621;28;20043;-63
2022/11/17 02:49:24;;;;;;;2.35;1.60;;;10.40;99.90;;;;;;5071456;28;20036;-66
2022/11/17 02:51:53;;;;;;;5.00;2.30;;;10.40;99.90;;;;;;5073265;28;20023;-63
2022/11/17 02:54:21;;;;;;;4.35;1.92;;;10.40;99.90;;;;;;5074989;28;20067;-63
2022/11/17 02:56:47;;;;;;;6.72;1.90;;;10.40;99.90;;;;;;5075252;28;20020;-63
2022/11/17 02:59:16;;;;;;;4.45;1.98;;;10.40;99.90;;;;;;5082423;28;20024;-63
2022/11/17 03:02:16;;;;;;;4.97;1.88;;;10.40;99.90;;;;;;5095169;28;20040;-64
2022/11/17 03:05:24;;;;;;;3.65;1.55;;;10.50;99.90;;;;;;5094537;28;20039;-63
2022/11/17 03:07:49;;;;;;;5.30;1.30;;;10.50;99.90;;;;;;5094804;28;20484;-63
2022/11/17 03:10:35;;;;;;;4.15;1.67;;;10.50;99.90;;;;;;5098416;28;20049;-63
2022/11/17 03:13:14;;;;;;;4.07;1.80;;;10.50;99.90;;;;;;5094001;28;20040;-63
2022/11/17 03:16:02;;;;;;;4.55;1.80;;;10.60;99.90;;;;;;5094207;28;20032;-63
2022/11/17 03:18:29;;;;;;;2.67;1.63;;;10.60;99.90;;;;;;5093287;28;20035;-63
2022/11/17 03:21:15;;;;;;;6.50;1.90;;;10.60;99.90;;;;;;5092897;28;20476;-63
2022/11/17 03:23:49;;;;;;;4.88;1.80;;;10.60;99.90;;;;;;5074779;28;20025;-63
2022/11/17 03:26:28;;;;;;;4.40;1.83;;;10.60;99.90;;;;;;5072537;28;20415;-63
2022/11/17 03:28:56;;;;;;;4.90;2.10;;;10.60;99.90;;;;;;5074730;28;20549;-64
2022/11/17 03:31:23;;;;;;;3.70;1.92;;;10.60;99.90;;;;;;5090593;28;20028;-63
2022/11/17 03:33:49;;;;;;;4.82;2.33;;;10.60;99.90;;;;;;5094099;28;20046;-63
2022/11/17 03:36:23;;;;;;;3.08;1.65;;;10.60;99.90;;;;;;5093829;28;20032;-63
2022/11/17 03:39:19;;;;;;;5.15;2.05;;;10.60;99.90;;;;;;5085908;28;20393;-63
2022/11/17 03:41:48;;;;;;;5.60;2.63;;;10.60;99.90;;;;;;5074093;28;20036;-63
2022/11/17 03:44:18;;;;;;;4.78;1.90;;;10.60;99.90;;;;;;5074361;28;20077;-64
2022/11/17 03:46:48;;;;;;;3.70;2.20;;;10.70;99.90;;;;;;5073681;28;20500;-63
2022/11/17 03:49:47;;;;;;;3.70;1.85;;;10.70;99.90;;;;;;5077102;28;20031;-63
2022/11/17 03:52:12;;;;;;;4.95;2.10;;;10.70;99.90;;;;;;5092326;28;20113;-63
2022/11/17 03:54:39;;;;;;;4.55;2.05;;;10.70;99.90;;;;;;5092618;28;20036;-65
2022/11/17 03:57:46;;;;;;;4.22;2.47;;;10.70;99.90;;;;;;5094144;28;20444;-63
2022/11/17 04:00:15;;;;;;;3.45;2.35;;;10.70;99.90;;;;;;5061511;28;20043;-65
2022/11/17 04:02:43;;;;;;;5.65;2.55;;;10.80;99.90;;;;;;5072921;28;20017;-64
2022/11/17 04:05:10;;;;;;;3.75;2.58;;;10.80;99.90;;;;;;5073908;28;20090;-65
2022/11/17 04:07:41;;;;;;;4.85;2.50;;;10.80;99.90;;;;;;5086297;28;20032;-65
2022/11/17 04:10:12;;;;;;;7.70;2.65;;;10.80;99.90;;;;;;5091669;28;20365;-63
2022/11/17 04:18:06;;;;;;;3.58;2.10;;;10.80;99.90;;;;;;5093429;28;20093;-63
2022/11/17 04:20:34;;;;;;;4.93;2.40;;;10.80;99.90;;;;;;5081769;28;20119;-63
2022/11/17 04:23:14;;;;;;;2.90;2.15;;;10.80;99.90;;;;;;5072131;28;20393;-63
2022/11/17 04:28:39;;;;;;;7.63;2.42;;;10.80;99.90;;;;;;5071696;28;20090;-63
2022/11/17 04:31:14;;;;;;;4.85;2.25;;;10.80;99.90;;;;;;5086275;28;20110;-63
2022/11/17 04:33:44;;;;;;;3.65;1.67;;;10.80;99.90;;;;;;5092663;28;20032;-66
2022/11/17 04:36:12;;;;;;;2.80;1.80;;;10.80;99.90;;;;;;5092288;28;20029;-66
2022/11/17 04:38:42;;;;;;;5.60;1.67;;;10.80;99.90;;;;;;5090756;28;20039;-66
2022/11/17 04:43:53;;;;;;;5.25;1.95;;;10.80;99.90;;;;;;5092108;28;20046;-66
2022/11/17 04:46:20;;;;;;;4.03;1.85;;;10.80;99.90;;;;;;5092992;28;20426;-64
2022/11/17 04:48:46;;;;;;;5.45;2.20;;;10.80;99.90;;;;;;5074188;28;20031;-66
2022/11/17 04:51:12;;;;;;;4.13;2.20;;;10.80;99.90;;;;;;5071948;28;20376;-63
2022/11/17 04:53:38;;;;;;;4.47;2.25;;;10.80;99.90;;;;;;5072095;28;20476;-65
2022/11/17 04:56:04;;;;;;;3.13;2.08;;;10.80;99.90;;;;;;5072621;28;20033;-66
2022/11/17 04:58:30;;;;;;;4.20;2.30;;;10.70;99.90;;;;;;5070020;28;20032;-65
2022/11/17 05:01:11;;;;;;;7.07;2.30;;;10.70;99.90;;;;;;5072185;28;20122;-66
2022/11/17 05:03:38;;;;;;;4.43;2.17;;;10.70;99.90;;;;;;5071897;28;20031;-64
2022/11/17 05:06:04;;;;;;;6.25;2.60;;;10.70;99.90;;;;;;5072184;28;20112;-65
2022/11/17 05:08:29;;;;;;;5.57;2.53;;;10.70;99.90;;;;;;5086643;28;20055;-65
2022/11/17 05:13:42;;;;;;;3.72;2.22;;;10.70;99.90;;;;;;5091295;28;20909;-64
2022/11/17 05:18:51;;;;;;;4.60;2.10;;;10.70;99.90;;;;;;5090300;28;20384;-65
2022/11/17 05:21:17;;;;;;;5.00;2.60;;;10.60;99.90;;;;;;5091843;28;20024;-66
2022/11/17 05:23:54;;;;;;;6.82;2.60;;;10.60;99.90;;;;;;5087932;28;20384;-66
2022/11/17 05:26:29;;;;;;;4.78;2.45;;;10.70;99.90;;;;;;5071087;28;20041;-62
2022/11/17 05:28:56;;;;;;;5.25;2.47;;;10.60;99.90;;;;;;5087738;28;20024;-64
2022/11/17 05:31:23;;;;;;;4.00;2.10;;;10.60;99.90;;;;;;5092057;28;20020;-65
2022/11/17 05:33:49;;;;;;;4.85;2.17;;;10.60;99.90;;;;;;5091474;28;20046;-66
2022/11/17 05:36:15;;;;;;;4.35;2.00;;;10.70;99.90;;;;;;5091852;28;20107;-66
2022/11/17 05:38:41;;;;;;;4.18;1.70;;;10.70;99.90;;;;;;5091414;28;20582;-64
2022/11/17 05:41:06;;;;;;;4.47;2.20;;;10.70;99.90;;;;;;5098138;28;20024;-63
2022/11/17 05:43:32;;;;;;;3.05;1.73;;;10.70;99.90;;;;;;5098539;28;20016;-65
2022/11/17 05:45:57;;;;;;;4.35;1.65;;;10.70;99.90;;;;;;5097815;28;20511;-65
2022/11/17 05:48:23;;;;;;;2.72;1.67;;;10.70;99.90;;;;;;5094411;28;20024;-63
2022/11/17 05:50:52;;;;;;;4.90;2.00;;;10.70;99.90;;;;;;5096824;28;20073;-65
2022/11/17 05:53:18;;;;;;;5.47;2.08;;;10.70;99.90;;;;;;5095061;28;20040;-66
2022/11/17 05:55:44;;;;;;;6.10;2.08;;;10.70;99.90;;;;;;5098628;28;20118;-65
2022/11/17 05:58:17;;;;;;;2.42;1.60;;;10.70;99.90;;;;;;5095923;28;20446;-66
2022/11/17 06:00:43;;;;;;;4.18;1.70;;;10.70;99.90;;;;;;5098003;28;20046;-63
2022/11/17 06:03:21;;;;;;;3.92;1.80;;;10.70;99.90;;;;;;5097757;28;20820;-65
2022/11/17 06:05:46;;;;;;;2.85;1.50;;;10.70;99.90;;;;;;5087881;28;20028;-65
2022/11/17 06:08:12;;;;;;;2.65;1.90;;;10.70;99.90;;;;;;5086008;28;20036;-64
2022/11/17 06:10:38;;;;;;;4.22;2.22;;;10.70;99.90;;;;;;5097533;28;20052;-64
2022/11/17 06:13:03;;;;;;;4.57;1.85;;;10.60;99.90;;;;;;5098821;28;20027;-64
2022/11/17 06:15:29;;;;;;;4.03;1.80;;;10.60;99.90;;;;;;5097855;28;20361;-65
2022/11/17 06:18:08;;;;;;;4.30;2.00;;;10.60;99.90;;;;;;5098620;28;20123;-63
2022/11/17 06:20:37;;;;;;;4.28;2.00;;;10.60;99.90;;;;;;5096755;28;20036;-65
2022/11/17 06:23:06;;;;;;;3.88;2.10;;;10.60;99.90;;;;;;5096704;28;20028;-65
2022/11/17 06:25:34;;;;;;;3.95;1.98;;;10.60;99.90;;;;;;5096596;28;20056;-64
2022/11/17 06:28:02;;;;;;;4.80;2.00;;;10.50;99.90;;;;;;5095879;28;20129;-64
2022/11/17 06:30:28;;;;;;;4.50;1.90;;;10.60;99.90;;;;;;5096560;28;20469;-65
2022/11/17 06:32:55;;;;;;;4.05;2.10;;;10.60;99.90;;;;;;5098772;28;20073;-64
2022/11/17 06:35:22;;;;;;;6.78;2.58;;;10.60;99.90;;;;;;5098203;28;20062;-63
2022/11/17 06:37:47;;;;;;;7.72;2.28;;;10.60;99.90;;;;;;5099018;28;20075;-64
2022/11/17 06:40:13;;;;;;;4.45;2.47;;;10.60;99.90;;;;;;5099000;28;20028;-64
2022/11/17 06:45:23;;;;;;;6.45;2.67;;;10.50;99.90;;;;;;5099190;28;20044;-63
2022/11/17 06:47:51;;;;;;;5.47;2.80;;;10.50;99.90;;;;;;5098746;28;20028;-63
2022/11/17 06:50:16;;;;;;;4.10;3.15;;;10.50;99.90;;;;;;5095468;28;20024;-63
2022/11/17 06:52:42;;;;;;;6.40;2.80;;;10.60;99.90;;;;;;5095668;28;20031;-64
2022/11/17 06:55:08;;;;;;;4.97;2.65;;;10.60;99.90;;;;;;5095600;28;20032;-63
2022/11/17 06:57:33;;;;;;;4.10;2.30;;;10.60;99.90;;;;;;5095180;28;20022;-64
2022/11/17 06:59:59;;;;;;;5.60;2.47;;;10.60;99.90;;;;;;5087908;28;20028;-64
2022/11/17 07:02:24;;;;;;;6.40;2.33;;;10.70;99.90;;;;;;5075274;28;20020;-64
2022/11/17 07:04:50;;;;;;;4.18;2.55;;;10.70;99.90;;;;;;5083500;28;20452;-65
2022/11/17 07:07:15;;;;;;;4.93;2.15;;;10.70;99.90;;;;;;5094710;28;20024;-64
2022/11/17 07:09:41;;;;;;;8.13;2.40;;;10.70;99.90;;;;;;5092444;28;20556;-64
2022/11/17 07:12:07;;;;;;;5.13;2.22;;;10.70;99.90;;;;;;5092699;28;20103;-63
2022/11/17 07:14:32;;;;;;;4.90;2.08;;;10.80;99.90;;;;;;5095010;28;20042;-65
2022/11/17 07:16:58;;;;;;;3.25;1.77;;;10.80;99.90;;;;;;5095311;28;20468;-65
2022/11/17 07:19:23;;;;;;;5.10;2.08;;;10.80;99.90;;;;;;5094944;28;20472;-64
2022/11/17 07:21:49;;;;;;;6.20;2.33;;;10.80;99.90;;;;;;5094901;28;20024;-63
2022/11/17 07:24:15;;;;;;;8.02;2.88;;;10.80;99.90;;;;;;5094490;28;20028;-64
2022/11/17 07:26:40;;;;;;;3.38;1.73;;;10.80;99.90;;;;;;5095096;28;20036;-64
2022/11/17 07:29:06;;;;;;;5.80;1.65;;;10.90;99.90;;;;;;5095347;28;20080;-64
2022/11/17 07:31:35;;;;;;;3.55;1.40;;;10.90;99.90;;;;;;5094330;28;20487;-64
2022/11/17 07:34:01;;;;;;;2.90;1.10;;;10.90;99.90;;;;;;5094774;28;20016;-65
2022/11/17 07:36:27;;;;;;;4.97;1.33;;;10.90;99.90;;;;;;5094994;28;20107;-64
2022/11/17 07:38:52;;;;;;;8.63;1.65;;;10.90;99.90;;;;;;5094298;28;20020;-64
2022/11/17 07:41:18;;;;;;;4.53;1.15;;;10.90;99.90;;;;;;5112511;28;20104;-65
2022/11/17 07:43:43;;;;;;;5.00;1.27;;;11.00;99.90;;;;;;5094467;28;20028;-64
2022/11/17 07:46:11;;;;;;;5.90;1.13;;;11.00;99.90;;;;;;5080597;28;20101;-65
2022/11/17 07:48:37;;;;;;;3.97;1.48;;;11.00;99.90;;;;;;5085066;28;20024;-65
2022/11/17 07:51:03;;;;;;;3.53;1.50;;;11.00;99.90;;;;;;5093550;28;20028;-64
2022/11/17 07:53:31;;;;;;;8.75;1.35;;;11.00;99.90;;;;;;5078951;28;20020;-65
2022/11/17 07:56:02;;;;;;;3.85;1.30;;;10.90;99.90;;;;;;5080990;28;20025;-62
2022/11/17 07:58:29;;;;;;;6.30;1.38;;;11.00;99.90;;;;;;5094540;28;20020;-62
2022/11/17 08:00:54;;;;;;;6.63;1.40;;;11.00;99.90;;;;;;5093608;28;20035;-62
2022/11/17 08:03:20;;;;;;;3.70;1.60;;;11.00;99.90;;;;;;5094037;28;20024;-63
2022/11/17 08:05:45;;;;;;;4.45;1.45;;;11.00;99.90;;;;;;5094198;28;20028;-63
2022/11/17 08:08:12;;;;;;;5.53;1.95;;;11.00;99.90;;;;;;5093582;28;20050;-63
2022/11/17 08:10:38;;;;;;;5.78;1.70;;;11.00;99.90;;;;;;5093946;28;20028;-62
2022/11/17 08:13:04;;;;;;;4.88;1.65;;;11.10;99.90;;;;;;5093896;28;20164;-63
2022/11/17 08:15:30;;;;;;;4.60;1.63;;;11.10;99.90;;;;;;5093037;28;20051;-66
2022/11/17 08:17:58;;;;;;;3.47;1.30;;;11.10;99.90;;;;;;5093778;28;20069;-65
2022/11/17 08:20:24;;;;;;;3.85;1.20;;;11.10;99.90;;;;;;5093232;28;20024;-63
2022/11/17 08:22:51;;;;;;;3.65;0.98;;;11.10;99.90;;;;;;5093989;28;20349;-65
2022/11/17 08:25:18;;;;;;;3.08;0.98;;;11.20;99.90;;;;;;5093844;28;20106;-65
2022/11/17 08:27:43;;;;;;;3.97;1.30;;;11.10;99.90;;;;;;5093069;28;20044;-64
2022/11/17 08:30:09;;;;;;;3.38;1.55;;;11.20;99.90;;;;;;5093880;28;20023;-65
2022/11/17 08:32:35;;;;;;;5.35;1.73;;;11.20;99.90;;;;;;5090843;28;20016;-65
2022/11/17 08:35:06;;;;;;;8.90;2.10;;;11.20;99.90;;;;;;5089786;28;20509;-64
2022/11/17 08:37:32;;;;;;;2.80;1.25;;;11.20;99.90;;;;;;5091567;28;20027;-64
2022/11/17 08:39:57;;;;;;;4.40;1.00;;;11.20;99.90;;;;;;5083096;28;20021;-63
2022/11/17 08:42:23;;;;;;;3.25;1.20;;;11.20;99.90;;;;;;5083946;28;20052;-64
2022/11/17 08:44:48;;;;;;;4.18;1.48;;;11.20;99.90;;;;;;5091103;28;20028;-64
2022/11/17 08:47:14;;;;;;;7.40;1.35;;;11.20;99.90;;;;;;5090851;28;20028;-64
2022/11/17 08:49:39;;;;;;;4.93;1.33;;;11.30;99.90;;;;;;5091449;28;20034;-64
2022/11/17 08:52:05;;;;;;;5.20;1.88;;;11.30;99.90;;;;;;5081995;28;20040;-65
2022/11/17 08:54:31;;;;;;;8.77;1.92;;;11.40;99.90;;;;;;5085503;28;20471;-64
2022/11/17 08:56:58;;;;;;;4.80;1.30;;;11.40;99.90;;;;;;5090358;28;20051;-63
2022/11/17 08:59:24;;;;;;;3.50;1.40;;;11.50;99.90;;;;;;5091900;28;20436;-64
2022/11/17 09:01:50;;;;;;;5.32;1.52;;;11.50;99.90;;;;;;5087867;28;20028;-64
2022/11/17 09:04:16;;;;;;;5.07;1.67;;;11.40;99.90;;;;;;5090934;28;20028;-64
2022/11/17 09:06:41;;;;;;;4.68;1.75;;;11.30;99.90;;;;;;5081539;28;20046;-64
2022/11/17 09:09:07;;;;;;;8.15;3.03;;;11.30;99.90;;;;;;5070787;28;20468;-63
2022/11/17 09:11:33;;;;;;;4.50;1.50;;;11.30;99.90;;;;;;5084272;28;21377;-64
2022/11/17 09:13:58;;;;;;;5.57;1.58;;;11.30;99.90;;;;;;5088710;28;20031;-65
2022/11/17 09:16:24;;;;;;;3.80;1.20;;;11.30;99.90;;;;;;5090998;28;20036;-63
2022/11/17 09:18:57;;;;;;;4.85;2.10;;;11.30;99.90;;;;;;5091127;28;20020;-64
2022/11/17 09:21:23;;;;;;;4.05;1.08;;;11.20;99.90;;;;;;5084209;28;20020;-64
2022/11/17 09:23:49;;;;;;;3.58;0.93;;;11.10;99.90;;;;;;5079193;28;20039;-64
2022/11/17 09:26:15;;;;;;;2.97;0.90;;;11.10;99.90;;;;;;5083198;28;20388;-64
2022/11/17 09:28:42;;;;;;;2.30;0.80;;;11.00;99.90;;;;;;5074518;28;20070;-63
2022/11/17 09:31:10;;;;;;;3.58;1.40;;;11.00;99.90;;;;;;5085965;28;20112;-64
2022/11/17 09:33:36;;;;;;;4.25;1.23;;;11.00;99.90;;;;;;5080826;28;20032;-65
2022/11/17 09:36:02;;;;;;;5.65;1.20;;;11.00;99.90;;;;;;5089388;28;20043;-64
2022/11/17 09:38:28;;;;;;;3.03;1.40;;;11.00;99.90;;;;;;5073637;28;20028;-63
2022/11/17 09:40:57;;;;;;;3.25;1.00;;;11.20;99.90;;;;;;5087842;28;20036;-64
2022/11/17 09:43:29;;;;;;;4.88;1.33;;;11.20;99.90;;;;;;5071708;28;20093;-64
2022/11/17 09:46:14;;;;;;;2.88;0.70;;;11.20;99.90;;;;;;5074696;28;20031;-64
2022/11/17 09:48:46;;;;;;;4.03;1.38;;;11.20;99.90;;;;;;5079652;28;20032;-63
2022/11/17 09:51:19;;;;;;;5.10;1.20;;;11.30;99.90;;;;;;5069845;28;20389;-64
2022/11/17 09:53:52;;;;;;;4.75;1.50;;;11.30;99.90;;;;;;5089336;28;20020;-64
2022/11/17 09:56:18;;;;;;;2.85;1.38;;;11.30;99.90;;;;;;5079923;28;20039;-63
2022/11/17 09:58:54;;;;;;;2.97;1.00;;;11.30;99.90;;;;;;5091800;28;20028;-64
2022/11/17 10:01:21;;;;;;;1.38;0.95;;;11.30;99.90;;;;;;5075644;28;20029;-64
2022/11/17 10:03:49;;;;;;;3.33;1.48;;;11.30;99.90;;;;;;5071774;28;20369;-65
2022/11/17 10:06:36;;;;;;;3.22;1.40;;;11.30;99.90;;;;;;5071265;28;20162;-65
2022/11/17 10:09:22;;;;;;;4.43;1.48;;;11.30;99.90;;;;;;5083720;28;20024;-63
2022/11/17 10:11:48;;;;;;;5.75;1.85;;;11.30;99.90;;;;;;5086386;28;20028;-65
2022/11/17 10:14:16;;;;;;;4.78;1.30;;;11.30;99.90;;;;;;5093075;28;20081;-65
2022/11/17 10:17:00;;;;;;;5.45;1.67;;;11.30;99.90;;;;;;5089159;28;20039;-65
2022/11/17 10:19:29;;;;;;;2.08;1.23;;;11.30;99.90;;;;;;5089720;28;20024;-64
2022/11/17 10:22:02;;;;;;;4.53;1.55;;;11.20;99.90;;;;;;5091058;28;20081;-64
2022/11/17 10:24:33;;;;;;;3.97;1.70;;;11.10;99.90;;;;;;5091462;28;20024;-64
2022/11/17 10:27:01;;;;;;;4.93;1.98;;;11.10;99.90;;;;;;5081485;28;20110;-64
2022/11/17 10:29:27;;;;;;;8.05;1.40;;;11.10;99.90;;;;;;5074393;28;20151;-64
2022/11/17 10:31:53;;;;;;;4.30;1.33;;;11.10;99.90;;;;;;5074775;28;20060;-63
2022/11/17 10:34:36;;;;;;;7.90;1.80;;;11.00;99.90;;;;;;5081695;28;20028;-62
2022/11/17 10:37:16;;;;;;;4.97;1.50;;;11.00;99.90;;;;;;5094084;28;20028;-63
2022/11/17 10:39:42;;;;;;;3.93;1.00;;;11.00;99.90;;;;;;5093186;28;20532;-64
2022/11/17 10:42:23;;;;;;;4.10;1.42;;;11.00;99.90;;;;;;5087045;28;20036;-64
2022/11/17 10:44:54;;;;;;;6.15;1.80;;;11.10;99.90;;;;;;5088654;28;20020;-64
2022/11/17 10:47:27;;;;;;;3.28;2.00;;;11.10;99.90;;;;;;5075023;28;20035;-63
2022/11/17 10:50:20;;;;;;;4.55;2.00;;;11.20;99.90;;;;;;5073119;28;20047;-64
2022/11/17 10:52:46;;;;;;;2.38;1.65;;;11.30;99.90;;;;;;5074835;28;20036;-63
2022/11/17 10:55:24;;;;;;;4.95;1.58;;;11.30;99.90;;;;;;5092048;28;20724;-64
2022/11/17 10:58:18;;;;;;;4.20;1.42;;;11.30;99.90;;;;;;5073892;28;20017;-64
2022/11/17 11:00:52;;;;;;;5.78;1.40;;;11.30;99.90;;;;;;5074019;28;20016;-62
2022/11/17 11:03:21;;;;;;;3.30;1.30;;;11.30;99.90;;;;;;5083119;28;20028;-61
2022/11/17 11:06:15;;;;;;;2.95;1.30;;;11.20;99.90;;;;;;5091999;28;20042;-62
2022/11/17 11:09:02;;;;;;;3.70;1.00;;;11.20;99.90;;;;;;5093841;28;20032;-63
2022/11/17 11:11:30;;;;;;;2.55;1.20;;;11.20;99.90;;;;;;5093835;28;20544;-62
2022/11/17 11:14:25;;;;;;;5.07;1.35;;;11.20;99.90;;;;;;5092518;28;20096;-62
2022/11/17 11:16:51;;;;;;;2.22;1.42;;;11.30;99.90;;;;;;5092253;28;20472;-64
2022/11/17 11:19:18;;;;;;;4.68;1.70;;;11.30;99.90;;;;;;5094031;28;20026;-63
2022/11/17 11:22:12;;;;;;;4.53;1.42;;;11.40;99.90;;;;;;5093686;28;20028;-62
2022/11/17 11:24:46;;;;;;;3.15;1.35;;;11.40;99.90;;;;;;5083430;28;20040;-61
2022/11/17 11:27:23;;;;;;;4.97;1.25;;;11.50;99.90;;;;;;5080618;28;20048;-63
2022/11/17 11:30:01;;;;;;;3.60;1.50;;;11.60;99.90;;;;;;5093539;28;20048;-63
2022/11/17 11:32:29;;;;;;;4.63;1.50;;;11.70;99.90;;;;;;5093231;28;20135;-63
2022/11/17 11:35:02;;;;;;;4.43;1.30;;;11.60;99.90;;;;;;5093858;28;20111;-63
2022/11/17 11:37:39;;;;;;;1.83;1.20;;;11.60;99.90;;;;;;5088706;28;20437;-63
2022/11/17 11:40:20;;;;;;;3.20;1.50;;;11.60;99.90;;;;;;5113794;28;20508;-63
2022/11/17 11:42:57;;;;;;;2.75;1.70;;;11.60;99.90;;;;;;5114230;28;20498;-63
2022/11/17 11:45:32;;;;;;;8.07;2.47;;;11.60;99.90;;;;;;5096573;28;20108;-65
2022/11/17 11:48:21;;;;;;;5.47;2.30;;;11.60;99.90;;;;;;5090066;28;20031;-63
2022/11/17 11:50:54;;;;;;;7.25;2.22;;;11.60;99.90;;;;;;5091833;28;20020;-63
2022/11/17 11:53:28;;;;;;;4.70;1.60;;;11.60;99.90;;;;;;5092680;28;20032;-64
2022/11/17 11:56:17;;;;;;;4.47;1.30;;;11.70;99.90;;;;;;5092777;28;20633;-64
2022/11/17 11:58:55;;;;;;;3.75;1.63;;;11.70;99.90;;;;;;5092905;28;20077;-65
2022/11/17 12:01:22;;;;;;;7.68;3.13;;;11.80;99.90;;;;;;5092992;28;20057;-63
2022/11/17 12:04:03;;;;;;;1.98;1.10;;;11.80;99.90;;;;;;5085604;28;20023;-65
2022/11/17 12:06:40;;;;;;;5.32;1.15;;;11.90;99.90;;;;;;5072388;28;20033;-65
2022/11/17 12:09:09;;;;;;;2.10;1.13;;;11.90;99.90;;;;;;5073130;28;20120;-65
2022/11/17 12:14:23;;;;;;;3.38;1.40;;;12.00;99.90;;;;;;5091198;28;20091;-65
2022/11/17 12:16:48;;;;;;;2.83;1.08;;;12.00;99.90;;;;;;5092622;28;20043;-65
2022/11/17 12:19:54;;;;;;;1.83;1.52;;;11.90;99.90;;;;;;5091861;28;20038;-64
2022/11/17 12:22:28;;;;;;;1.92;1.20;;;11.90;99.90;;;;;;5092233;28;20055;-62
2022/11/17 12:24:56;;;;;;;4.45;1.38;;;11.90;99.90;;;;;;5078698;28;20028;-63
2022/11/17 12:27:40;;;;;;;3.03;1.23;;;11.80;99.90;;;;;;5090106;28;20036;-65
2022/11/17 12:30:29;;;;;;;4.50;1.27;;;11.90;99.90;;;;;;5081584;28;20501;-64
2022/11/17 12:32:55;;;;;;;5.07;1.00;;;11.90;99.90;;;;;;5063441;28;20029;-64
2022/11/17 12:35:28;;;;;;;3.80;1.55;;;11.90;99.90;;;;;;5071433;28;20374;-65
2022/11/17 12:38:20;;;;;;;4.70;1.15;;;11.90;99.90;;;;;;5073930;28;20103;-66
2022/11/17 12:40:52;;;;;;;4.15;1.27;;;11.90;99.90;;;;;;5046398;28;20481;-64
2022/11/17 12:43:23;;;;;;;4.57;1.40;;;11.90;99.90;;;;;;5089430;28;20028;-65
2022/11/17 12:45:55;;;;;;;3.97;1.50;;;11.80;99.90;;;;;;5091382;28;20035;-65
2022/11/17 12:48:27;;;;;;;2.65;1.35;;;11.90;99.90;;;;;;5091190;28;20016;-65
2022/11/17 12:51:05;;;;;;;5.18;2.03;;;11.80;99.90;;;;;;5089706;28;20159;-65
2022/11/17 12:53:39;;;;;;;1.88;1.17;;;11.90;99.90;;;;;;5091151;28;20035;-65
2022/11/17 12:56:24;;;;;;;3.42;1.48;;;11.90;99.90;;;;;;5089318;28;20044;-65
2022/11/17 12:58:49;;;;;;;4.72;1.88;;;11.90;99.90;;;;;;5091608;28;20380;-65
2022/11/17 13:01:45;;;;;;;3.35;1.55;;;12.00;99.90;;;;;;5091233;28;20024;-65
2022/11/17 13:04:18;;;;;;;5.25;1.83;;;12.00;99.90;;;;;;5084531;28;20036;-66
2022/11/17 13:07:21;;;;;;;5.93;1.92;;;12.00;99.90;;;;;;5071727;28;20499;-66
2022/11/17 13:09:56;;;;;;;3.63;1.63;;;12.00;99.90;;;;;;5076081;28;20040;-64
2022/11/17 13:12:29;;;;;;;4.28;1.10;;;12.00;99.90;;;;;;5091947;28;20032;-64
2022/11/17 13:15:03;;;;;;;5.03;2.00;;;12.00;99.90;;;;;;5089138;28;20039;-64
2022/11/17 13:17:42;;;;;;;3.60;1.70;;;12.00;99.90;;;;;;5074976;28;20070;-62
2022/11/17 13:20:28;;;;;;;6.68;2.00;;;12.00;99.90;;;;;;5071183;28;20049;-62
2022/11/17 13:23:12;;;;;;;2.00;1.20;;;11.90;99.90;;;;;;5076924;28;20024;-65
2022/11/17 13:25:37;;;;;;;4.53;1.70;;;11.90;99.90;;;;;;5073112;28;20032;-63
2022/11/17 13:28:03;;;;;;;6.70;2.53;;;11.90;99.90;;;;;;5070168;28;20131;-66
2022/11/17 13:30:31;;;;;;;6.07;1.88;;;11.80;99.90;;;;;;5085269;28;20025;-65
2022/11/17 13:33:01;;;;;;;4.47;1.20;;;11.80;99.90;;;;;;5090089;28;20464;-63
2022/11/17 13:35:31;;;;;;;2.08;1.30;;;11.80;99.90;;;;;;5088543;28;20411;-65
2022/11/17 13:38:20;;;;;;;3.13;1.50;;;11.70;99.90;;;;;;5091236;28;20395;-63
2022/11/17 13:40:48;;;;;;;3.63;0.90;;;11.70;99.90;;;;;;5091834;28;20040;-66
2022/11/17 13:43:24;;;;;;;2.38;1.15;;;11.70;99.90;;;;;;5091318;28;20036;-65
2022/11/17 13:45:52;;;;;;;5.18;1.52;;;11.70;99.90;;;;;;5086959;28;20392;-63